Salacak — 3FBM4 — position and weather

sailwx.info

Track history (hours):
 
Tides and Currents Weather Stations Pressure Air Temp Water Temp Dewpoint Dewpoint Depression Visibility Wind Speed Wind Dir Waves Ship Positions

Salacak

Last reported at 2014-Nov-20 11:24 UTC. Time now 2014-Nov-22 10:33 UTC.
Position N 44°44' E 037°47'.

Length 126 m; draft 5.2 m.

Type: Cargo ship. MMSI: 373532000.

Date/timePositionNaut miles runAvg speedWind from/ knotsBaromVisibWave heightAir tempDewpointWater temp
2014-Nov-20 11:24N 44°44' E 037°47'0 0.0
2014-Nov-20 10:33N 44°44' E 037°47'0 0.0
2014-Nov-20 09:33N 44°44' E 037°47'0 0.0
2014-Nov-20 08:33N 44°44' E 037°47'0 0.0
2014-Nov-20 07:33N 44°44' E 037°47'0 0.0
2014-Nov-20 06:33N 44°44' E 037°47'0 0.0
2014-Nov-20 05:33N 44°44' E 037°47'0 0.0
2014-Nov-20 04:33N 44°44' E 037°47'0 0.0
2014-Nov-20 03:33N 44°44' E 037°47'0 0.0
2014-Nov-20 02:33N 44°44' E 037°47'0 0.0
2014-Nov-20 01:33N 44°44' E 037°47'0 0.0
2014-Nov-20 00:33N 44°44' E 037°47'0 0.0
2014-Nov-19 23:33N 44°44' E 037°47'0 0.0
2014-Nov-19 22:33N 44°44' E 037°47'0 0.0
2014-Nov-19 21:33N 44°44' E 037°47'0 0.0
2014-Nov-19 20:33N 44°44' E 037°47'0 0.0
2014-Nov-19 19:32N 44°44' E 037°47'0 0.1
2014-Nov-19 18:34N 44°44' E 037°47'7 6.9
2014-Nov-19 17:34N 44°38' E 037°52'4 3.8
2014-Nov-19 16:32N 44°35' E 037°56'0 0.0
2014-Nov-19 15:32N 44°35' E 037°56'0 0.0
2014-Nov-19 14:32N 44°35' E 037°56'0 0.0
2014-Nov-19 13:32N 44°35' E 037°56'0 0.0
2014-Nov-19 12:32N 44°35' E 037°56'0 0.0
2014-Nov-19 11:32N 44°35' E 037°56'0 0.0
2014-Nov-19 10:32N 44°35' E 037°56'0 0.1
2014-Nov-19 09:32N 44°35' E 037°56'0 0.0
2014-Nov-19 08:32N 44°35' E 037°56'0 0.0
2014-Nov-19 07:32N 44°35' E 037°56'0 0.0
2014-Nov-19 06:32N 44°35' E 037°56'0 0.0
2014-Nov-19 05:32N 44°35' E 037°56'0 0.0
2014-Nov-19 04:32N 44°35' E 037°56'0 0.0
2014-Nov-19 03:32N 44°35' E 037°56'0 0.0
2014-Nov-19 02:32N 44°35' E 037°56'5 4.7
2014-Nov-19 01:33N 44°32' E 037°51'1211.7
2014-Nov-19 00:32N 44°25' E 037°38'39812.1
2014-Nov-17 15:33N 41°18' E 029°39'1312.9
2014-Nov-17 14:33N 41°16' E 029°22'  
2014-Nov-13 01:23N 40°47' E 029°07'1011.6
2014-Nov-13 00:33N 40°53' E 028°57'25 2.2
2014-Nov-12 13:06N 41°17' E 029°05'711.4
2014-Nov-12 12:31N 41°20' E 029°12'1212.2
2014-Nov-12 11:33N 41°21' E 029°28'39211.4
2014-Nov-11 01:12N 44°18' E 037°26'812.1
2014-Nov-11 00:34N 44°23' E 037°35'1312.6
2014-Nov-10 23:34N 44°30' E 037°49'7 6.4
2014-Nov-10 22:28N 44°34' E 037°56'0 0.0
2014-Nov-10 21:28N 44°34' E 037°57'0 0.1
2014-Nov-10 20:31N 44°34' E 037°57'0 0.0
2014-Nov-10 19:28N 44°34' E 037°57'0 0.0
2014-Nov-10 18:28N 44°34' E 037°57'0 0.0
2014-Nov-10 17:31N 44°34' E 037°57'0 0.0
2014-Nov-10 16:28N 44°34' E 037°57'0 0.1
2014-Nov-10 15:28N 44°34' E 037°56'0 0.0
2014-Nov-10 14:28N 44°34' E 037°56'0 0.0
2014-Nov-10 13:31N 44°34' E 037°56'1 1.0
2014-Nov-10 12:33N 44°34' E 037°55'8 7.5
2014-Nov-10 11:33N 44°41' E 037°50'  
Track history (hours):
 
Tides and Currents Weather Stations Pressure Air Temp Water Temp Dewpoint Dewpoint Depression Visibility Wind Speed Wind Dir Waves Ship Positions

Salacak

Last reported at 2014-Nov-20 11:24 UTC. Time now 2014-Nov-22 10:33 UTC.
Position N 44°44' E 037°47'.

Length 126 m; draft 5.2 m.

Type: Cargo ship. MMSI: 373532000.

Date/timePositionNaut miles runAvg speedWind from/ knotsBaromVisibWave heightAir tempDewpointWater temp
2014-Nov-20 11:24N 44°44' E 037°47'0 0.0
2014-Nov-20 10:33N 44°44' E 037°47'0 0.0
2014-Nov-20 09:33N 44°44' E 037°47'0 0.0
2014-Nov-20 08:33N 44°44' E 037°47'0 0.0
2014-Nov-20 07:33N 44°44' E 037°47'0 0.0
2014-Nov-20 06:33N 44°44' E 037°47'0 0.0
2014-Nov-20 05:33N 44°44' E 037°47'0 0.0
2014-Nov-20 04:33N 44°44' E 037°47'0 0.0
2014-Nov-20 03:33N 44°44' E 037°47'0 0.0
2014-Nov-20 02:33N 44°44' E 037°47'0 0.0
2014-Nov-20 01:33N 44°44' E 037°47'0 0.0
2014-Nov-20 00:33N 44°44' E 037°47'0 0.0
2014-Nov-19 23:33N 44°44' E 037°47'0 0.0
2014-Nov-19 22:33N 44°44' E 037°47'0 0.0
2014-Nov-19 21:33N 44°44' E 037°47'0 0.0
2014-Nov-19 20:33N 44°44' E 037°47'0 0.0
2014-Nov-19 19:32N 44°44' E 037°47'0 0.1
2014-Nov-19 18:34N 44°44' E 037°47'7 6.9
2014-Nov-19 17:34N 44°38' E 037°52'4 3.8
2014-Nov-19 16:32N 44°35' E 037°56'0 0.0
2014-Nov-19 15:32N 44°35' E 037°56'0 0.0
2014-Nov-19 14:32N 44°35' E 037°56'0 0.0
2014-Nov-19 13:32N 44°35' E 037°56'0 0.0
2014-Nov-19 12:32N 44°35' E 037°56'0 0.0
2014-Nov-19 11:32N 44°35' E 037°56'0 0.0
2014-Nov-19 10:32N 44°35' E 037°56'0 0.1
2014-Nov-19 09:32N 44°35' E 037°56'0 0.0
2014-Nov-19 08:32N 44°35' E 037°56'0 0.0
2014-Nov-19 07:32N 44°35' E 037°56'0 0.0
2014-Nov-19 06:32N 44°35' E 037°56'0 0.0
2014-Nov-19 05:32N 44°35' E 037°56'0 0.0
2014-Nov-19 04:32N 44°35' E 037°56'0 0.0
2014-Nov-19 03:32N 44°35' E 037°56'0 0.0
2014-Nov-19 02:32N 44°35' E 037°56'5 4.7
2014-Nov-19 01:33N 44°32' E 037°51'1211.7
2014-Nov-19 00:32N 44°25' E 037°38'39812.1
2014-Nov-17 15:33N 41°18' E 029°39'1312.9
2014-Nov-17 14:33N 41°16' E 029°22'  
2014-Nov-13 01:23N 40°47' E 029°07'1011.6
2014-Nov-13 00:33N 40°53' E 028°57'25 2.2
2014-Nov-12 13:06N 41°17' E 029°05'711.4
2014-Nov-12 12:31N 41°20' E 029°12'1212.2
2014-Nov-12 11:33N 41°21' E 029°28'39211.4
2014-Nov-11 01:12N 44°18' E 037°26'812.1
2014-Nov-11 00:34N 44°23' E 037°35'1312.6
2014-Nov-10 23:34N 44°30' E 037°49'7 6.4
2014-Nov-10 22:28N 44°34' E 037°56'0 0.0
2014-Nov-10 21:28N 44°34' E 037°57'0 0.1
2014-Nov-10 20:31N 44°34' E 037°57'0 0.0
2014-Nov-10 19:28N 44°34' E 037°57'0 0.0
2014-Nov-10 18:28N 44°34' E 037°57'0 0.0
2014-Nov-10 17:31N 44°34' E 037°57'0 0.0
2014-Nov-10 16:28N 44°34' E 037°57'0 0.1
2014-Nov-10 15:28N 44°34' E 037°56'0 0.0
2014-Nov-10 14:28N 44°34' E 037°56'0 0.0
2014-Nov-10 13:31N 44°34' E 037°56'1 1.0
2014-Nov-10 12:33N 44°34' E 037°55'8 7.5
2014-Nov-10 11:33N 44°41' E 037°50'  

Dump ship's entire track history